Portola, California
Current Conditions -  °F | °C
As of 3:55 PM on Friday 28 Nov 2014 (Local Time) from KRTS Reporting Station
Clear Clear  
Wind Chill: 55°   Ceiling: Unl
Heat Index: 55°   Visibility: 10mi
Dew Point: -8°   Wind: 24mph
Humidity: 7%   Direction: 240°WSW
Pressure: 29.88"   Gusts: 44mph
Location:  39.81°N, 120.47°W
Report Text: KRTS 282355Z AUTO 24021G38KT 10SM CLR 13/M22 A2988 RMK AO2
Loading
Personal Weather Stations






























Interactive Weather Map New forecast layout! Learn more

10-Day Weather Forecast

Advertisements
Track Severe Weather on mobile